Cusseta, Alabama
Current Conditions -  °F | °C
As of 3:35 AM on Thursday 23 Oct 2014 (Local Time) from KAUO Reporting Station
Clear Clear  
Wind Chill: 41°   Ceiling: Unl
Heat Index: 46°   Visibility: 10mi
Dew Point: 39°   Wind: 10mph
Humidity: 76%   Direction: 30°NNE
Pressure: 30.1"   Gusts: NA
Location:  32.79°N, 85.31°W
Report Text: KAUO 230835Z AUTO 03009KT 10SM CLR 08/04 A3010 RMK AO1
Loading
Personal Weather Stations






























Interactive Weather Map
Tropical Storm Tracking
New forecast layout! Learn more

10-Day Weather Forecast

Advertisements
Track Severe Weather on mobile